Fort Bidwell, California
Current Conditions -  °F | °C
As of 2:55 AM on Friday 19 Dec 2014 (Local Time) from KLKV Reporting Station
Overcast Overcast  
Wind Chill: 25°   Ceiling: 3200
Heat Index: 34°   Visibility: 10mi
Dew Point: 30°   Wind: 12mph
Humidity: 87%   Direction: 170°S
Pressure: 30.02"   Gusts: NA
Location:  41.86°N, 120.15°W
Report Text: KLKV 191055Z 17010KT 10SM BKN032 BKN070 OVC095 01/M01 A3002 RMK AO1
Loading
Personal Weather Stations






























Interactive Weather Map New forecast layout! Learn more

10-Day Weather Forecast

Advertisements
Track Severe Weather on mobile